sensor_id;sensor_type;location;lat;lon;timestamp;pressure;altitude;pressure_sealevel;temperature;humidity
8894;BME280;4483;48.622;9.230;2023-03-21T00:00:56;98122.03;;;9.00;91.06
8894;BME280;4483;48.622;9.230;2023-03-21T00:03:25;98125.47;;;8.99;91.24
8894;BME280;4483;48.622;9.230;2023-03-21T00:05:52;98123.81;;;8.98;91.36
8894;BME280;4483;48.622;9.230;2023-03-21T00:08:19;98121.31;;;8.95;91.34
8894;BME280;4483;48.622;9.230;2023-03-21T00:10:46;98120.56;;;8.92;91.59
8894;BME280;4483;48.622;9.230;2023-03-21T00:13:14;98114.66;;;8.90;92.18
8894;BME280;4483;48.622;9.230;2023-03-21T00:15:41;98111.22;;;8.89;92.25
8894;BME280;4483;48.622;9.230;2023-03-21T00:18:15;98118.03;;;8.90;91.92
8894;BME280;4483;48.622;9.230;2023-03-21T00:20:43;98111.22;;;8.89;92.55
8894;BME280;4483;48.622;9.230;2023-03-21T00:23:16;98118.03;;;8.90;92.77
8894;BME280;4483;48.622;9.230;2023-03-21T00:25:42;98113.75;;;8.91;92.75
8894;BME280;4483;48.622;9.230;2023-03-21T00:28:09;98108.59;;;8.91;92.71
8894;BME280;4483;48.622;9.230;2023-03-21T00:30:38;98106.09;;;8.89;93.09
8894;BME280;4483;48.622;9.230;2023-03-21T00:33:05;98109.53;;;8.88;93.03
8894;BME280;4483;48.622;9.230;2023-03-21T00:35:32;98111.31;;;8.86;92.59
8894;BME280;4483;48.622;9.230;2023-03-21T00:38:00;98106.16;;;8.86;93.33
8894;BME280;4483;48.622;9.230;2023-03-21T00:40:27;98101.03;;;8.86;93.38
8894;BME280;4483;48.622;9.230;2023-03-21T00:42:53;98095.88;;;8.86;93.46
8894;BME280;4483;48.622;9.230;2023-03-21T00:45:20;98093.28;;;8.88;93.49
8894;BME280;4483;48.622;9.230;2023-03-21T00:47:47;98095.00;;;8.87;93.38
8894;BME280;4483;48.622;9.230;2023-03-21T00:50:13;98080.44;;;8.88;93.46
8894;BME280;4483;48.622;9.230;2023-03-21T00:52:40;98083.84;;;8.88;93.54
8894;BME280;4483;48.622;9.230;2023-03-21T00:55:13;98077.88;;;8.88;93.31
8894;BME280;4483;48.622;9.230;2023-03-21T00:57:40;98079.56;;;8.89;93.50
8894;BME280;4483;48.622;9.230;2023-03-21T01:00:08;98082.97;;;8.89;93.25
8894;BME280;4483;48.622;9.230;2023-03-21T01:02:36;98079.59;;;8.87;93.76
8894;BME280;4483;48.622;9.230;2023-03-21T01:05:09;98079.59;;;8.87;93.78
8894;BME280;4483;48.622;9.230;2023-03-21T01:07:36;98073.66;;;8.85;93.42
8894;BME280;4483;48.622;9.230;2023-03-21T01:10:04;98069.44;;;8.84;93.84
8894;BME280;4483;48.622;9.230;2023-03-21T01:12:32;98070.28;;;8.83;93.83
8894;BME280;4483;48.622;9.230;2023-03-21T01:14:59;98067.66;;;8.85;93.78
8894;BME280;4483;48.622;9.230;2023-03-21T01:17:25;98071.09;;;8.85;94.42
8894;BME280;4483;48.622;9.230;2023-03-21T01:19:53;98076.28;;;8.84;94.00
8894;BME280;4483;48.622;9.230;2023-03-21T01:22:19;98070.28;;;8.83;94.45
8894;BME280;4483;48.622;9.230;2023-03-21T01:24:46;98075.44;;;8.83;94.48
8894;BME280;4483;48.622;9.230;2023-03-21T01:27:13;98072.91;;;8.82;94.58
8894;BME280;4483;48.622;9.230;2023-03-21T01:29:41;98069.44;;;8.83;94.01
8894;BME280;4483;48.622;9.230;2023-03-21T01:32:08;98070.28;;;8.83;94.75
8894;BME280;4483;48.622;9.230;2023-03-21T01:34:35;98066.84;;;8.84;94.37
8894;BME280;4483;48.622;9.230;2023-03-21T01:37:01;98072.00;;;8.84;94.67
8894;BME280;4483;48.622;9.230;2023-03-21T01:39:28;98066.00;;;8.84;94.67
8894;BME280;4483;48.622;9.230;2023-03-21T01:41:57;98060.91;;;8.82;94.60
8894;BME280;4483;48.622;9.230;2023-03-21T01:44:23;98063.50;;;8.81;94.79
8894;BME280;4483;48.622;9.230;2023-03-21T01:46:51;98060.94;;;8.81;94.86
8894;BME280;4483;48.622;9.230;2023-03-21T01:49:21;98062.75;;;8.79;95.02
8894;BME280;4483;48.622;9.230;2023-03-21T01:51:52;98061.88;;;8.78;95.01
8894;BME280;4483;48.622;9.230;2023-03-21T01:54:23;98057.63;;;8.77;94.84
8894;BME280;4483;48.622;9.230;2023-03-21T01:56:52;98049.97;;;8.76;94.91
8894;BME280;4483;48.622;9.230;2023-03-21T01:59:23;98050.81;;;8.76;95.43
8894;BME280;4483;48.622;9.230;2023-03-21T02:01:52;98046.56;;;8.75;95.60
8894;BME280;4483;48.622;9.230;2023-03-21T02:04:18;98053.44;;;8.75;95.45
8894;BME280;4483;48.622;9.230;2023-03-21T02:06:55;98049.16;;;8.74;95.28
8894;BME280;4483;48.622;9.230;2023-03-21T02:09:25;98041.50;;;8.72;95.51
8894;BME280;4483;48.622;9.230;2023-03-21T02:11:53;98042.41;;;8.71;95.74
8894;BME280;4483;48.622;9.230;2023-03-21T02:14:20;98044.09;;;8.72;95.58
8894;BME280;4483;48.622;9.230;2023-03-21T02:16:53;98029.56;;;8.71;95.11
8894;BME280;4483;48.622;9.230;2023-03-21T02:19:45;98031.34;;;8.69;95.72
8894;BME280;4483;48.622;9.230;2023-03-21T02:22:38;98039.00;;;8.71;95.44
8894;BME280;4483;48.622;9.230;2023-03-21T02:28:21;98038.09;;;8.72;96.15
8894;BME280;4483;48.622;9.230;2023-03-21T02:31:22;98033.13;;;8.67;95.95
8894;BME280;4483;48.622;9.230;2023-03-21T02:34:16;98027.34;;;8.59;96.00
8894;BME280;4483;48.622;9.230;2023-03-21T02:37:14;98031.63;;;8.60;96.03
8894;BME280;4483;48.622;9.230;2023-03-21T02:39:53;98024.88;;;8.56;95.78
8894;BME280;4483;48.622;9.230;2023-03-21T02:42:27;98031.00;;;8.52;96.49
8894;BME280;4483;48.622;9.230;2023-03-21T02:45:00;98029.22;;;8.54;96.78
8894;BME280;4483;48.622;9.230;2023-03-21T02:47:29;98027.47;;;8.56;96.62
8894;BME280;4483;48.622;9.230;2023-03-21T02:50:03;98027.34;;;8.59;97.00
8894;BME280;4483;48.622;9.230;2023-03-21T02:52:35;98021.28;;;8.62;96.87
8894;BME280;4483;48.622;9.230;2023-03-21T02:55:05;98022.97;;;8.63;96.51
8894;BME280;4483;48.622;9.230;2023-03-21T02:57:38;98022.09;;;8.64;96.68
8894;BME280;4483;48.622;9.230;2023-03-21T03:00:07;98017.88;;;8.61;96.52
8894;BME280;4483;48.622;9.230;2023-03-21T03:02:37;98018.84;;;8.59;96.58
8894;BME280;4483;48.622;9.230;2023-03-21T03:05:12;98021.47;;;8.56;96.99
8894;BME280;4483;48.622;9.230;2023-03-21T03:07:47;98026.66;;;8.54;96.63
8894;BME280;4483;48.622;9.230;2023-03-21T03:10:28;98021.53;;;8.54;96.50
8894;BME280;4483;48.622;9.230;2023-03-21T03:13:05;98028.31;;;8.55;97.36
8894;BME280;4483;48.622;9.230;2023-03-21T03:15:38;98023.19;;;8.55;97.17
8894;BME280;4483;48.622;9.230;2023-03-21T03:18:18;98023.16;;;8.57;97.37
8894;BME280;4483;48.622;9.230;2023-03-21T03:20:51;98026.56;;;8.57;97.60
8894;BME280;4483;48.622;9.230;2023-03-21T03:23:27;98021.34;;;8.60;97.57
8894;BME280;4483;48.622;9.230;2023-03-21T03:25:59;98022.22;;;8.59;97.48
8894;BME280;4483;48.622;9.230;2023-03-21T03:28:31;98022.22;;;8.59;97.49
8894;BME280;4483;48.622;9.230;2023-03-21T03:31:01;98022.16;;;8.61;97.59
8894;BME280;4483;48.622;9.230;2023-03-21T03:33:31;98023.88;;;8.62;97.74
8894;BME280;4483;48.622;9.230;2023-03-21T03:35:59;98019.59;;;8.62;97.62
8894;BME280;4483;48.622;9.230;2023-03-21T03:38:28;98017.81;;;8.63;97.15
8894;BME280;4483;48.622;9.230;2023-03-21T03:40:58;98005.94;;;8.60;97.88
8894;BME280;4483;48.622;9.230;2023-03-21T03:43:32;98005.00;;;8.63;97.31
8894;BME280;4483;48.622;9.230;2023-03-21T03:46:06;98011.91;;;8.61;97.88
8894;BME280;4483;48.622;9.230;2023-03-21T03:48:41;98008.47;;;8.62;97.53
8894;BME280;4483;48.622;9.230;2023-03-21T03:51:15;98004.19;;;8.61;97.38
8894;BME280;4483;48.622;9.230;2023-03-21T03:53:50;98001.72;;;8.58;97.40
8894;BME280;4483;48.622;9.230;2023-03-21T03:56:19;98006.00;;;8.57;98.46
8894;BME280;4483;48.622;9.230;2023-03-21T03:58:46;97996.63;;;8.56;98.07
8894;BME280;4483;48.622;9.230;2023-03-21T04:01:14;98006.06;;;8.56;97.98
8894;BME280;4483;48.622;9.230;2023-03-21T04:03:44;97996.69;;;8.55;98.04
8894;BME280;4483;48.622;9.230;2023-03-21T04:06:12;97998.41;;;8.54;98.22
8894;BME280;4483;48.622;9.230;2023-03-21T04:08:39;97989.06;;;8.52;98.44
8894;BME280;4483;48.622;9.230;2023-03-21T04:11:07;97999.34;;;8.52;98.58
8894;BME280;4483;48.622;9.230;2023-03-21T04:13:34;97995.94;;;8.51;98.17
8894;BME280;4483;48.622;9.230;2023-03-21T04:16:00;97993.38;;;8.51;98.36
8894;BME280;4483;48.622;9.230;2023-03-21T04:18:27;97989.09;;;8.50;98.79
8894;BME280;4483;48.622;9.230;2023-03-21T04:20:56;97982.31;;;8.49;98.44
8894;BME280;4483;48.622;9.230;2023-03-21T04:23:23;97990.81;;;8.50;98.67
8894;BME280;4483;48.622;9.230;2023-03-21T04:25:50;97983.19;;;8.48;98.40
8894;BME280;4483;48.622;9.230;2023-03-21T04:28:18;97990.09;;;8.46;98.69
8894;BME280;4483;48.622;9.230;2023-03-21T04:30:47;97984.16;;;8.44;99.04
8894;BME280;4483;48.622;9.230;2023-03-21T04:33:14;97989.28;;;8.46;98.63
8894;BME280;4483;48.622;9.230;2023-03-21T04:35:40;97989.28;;;8.44;98.70
8894;BME280;4483;48.622;9.230;2023-03-21T04:38:09;97994.47;;;8.43;98.94
8894;BME280;4483;48.622;9.230;2023-03-21T04:40:36;97990.22;;;8.42;98.42
8894;BME280;4483;48.622;9.230;2023-03-21T04:43:03;97986.03;;;8.39;98.46
8894;BME280;4483;48.622;9.230;2023-03-21T04:45:31;97985.19;;;8.39;98.53
8894;BME280;4483;48.622;9.230;2023-03-21T04:47:57;97987.84;;;8.36;98.73
8894;BME280;4483;48.622;9.230;2023-03-21T04:50:24;97989.59;;;8.34;98.62
8894;BME280;4483;48.622;9.230;2023-03-21T04:52:50;97985.44;;;8.31;98.73
8894;BME280;4483;48.622;9.230;2023-03-21T04:55:17;97994.09;;;8.27;98.63
8894;BME280;4483;48.622;9.230;2023-03-21T04:57:46;97990.75;;;8.24;98.60
8894;BME280;4483;48.622;9.230;2023-03-21T05:00:13;97987.44;;;8.18;98.54
8894;BME280;4483;48.622;9.230;2023-03-21T05:02:42;97987.53;;;8.15;98.72
8894;BME280;4483;48.622;9.230;2023-03-21T05:05:09;97993.69;;;8.10;98.51
8894;BME280;4483;48.622;9.230;2023-03-21T05:07:37;97992.94;;;8.06;98.86
8894;BME280;4483;48.622;9.230;2023-03-21T05:10:04;97987.16;;;8.00;98.79
8894;BME280;4483;48.622;9.230;2023-03-21T05:12:32;97987.09;;;8.01;98.69
8894;BME280;4483;48.622;9.230;2023-03-21T05:14:58;97994.06;;;7.98;98.71
8894;BME280;4483;48.622;9.230;2023-03-21T05:17:25;97992.44;;;7.94;98.58
8894;BME280;4483;48.622;9.230;2023-03-21T05:19:54;97993.31;;;7.93;98.88
8894;BME280;4483;48.622;9.230;2023-03-21T05:22:23;97996.81;;;7.90;99.10
8894;BME280;4483;48.622;9.230;2023-03-21T05:24:51;97993.50;;;7.87;98.95
8894;BME280;4483;48.622;9.230;2023-03-21T05:27:20;97998.69;;;7.85;98.83
8894;BME280;4483;48.622;9.230;2023-03-21T05:30:01;98003.00;;;7.83;99.10
8894;BME280;4483;48.622;9.230;2023-03-21T05:32:28;98000.59;;;7.77;98.99
8894;BME280;4483;48.622;9.230;2023-03-21T05:34:56;98005.03;;;7.72;99.15
8894;BME280;4483;48.622;9.230;2023-03-21T05:37:23;98004.31;;;7.66;99.00
8894;BME280;4483;48.622;9.230;2023-03-21T05:39:50;98002.59;;;7.66;99.52
8894;BME280;4483;48.622;9.230;2023-03-21T05:42:17;98013.66;;;7.68;99.61
8894;BME280;4483;48.622;9.230;2023-03-21T05:44:44;98006.81;;;7.69;99.62
8894;BME280;4483;48.622;9.230;2023-03-21T05:47:11;98009.34;;;7.70;99.71
8894;BME280;4483;48.622;9.230;2023-03-21T05:49:38;98008.38;;;7.74;99.66
8894;BME280;4483;48.622;9.230;2023-03-21T05:52:07;98004.97;;;7.74;99.37
8894;BME280;4483;48.622;9.230;2023-03-21T05:54:34;98010.09;;;7.74;99.36
8894;BME280;4483;48.622;9.230;2023-03-21T05:57:01;98018.66;;;7.74;99.51
8894;BME280;4483;48.622;9.230;2023-03-21T05:59:28;98020.28;;;7.77;99.72
8894;BME280;4483;48.622;9.230;2023-03-21T06:01:54;98019.31;;;7.81;99.61
8894;BME280;4483;48.622;9.230;2023-03-21T06:04:21;98023.47;;;7.85;99.76
8894;BME280;4483;48.622;9.230;2023-03-21T06:06:48;98015.75;;;7.86;99.75
8894;BME280;4483;48.622;9.230;2023-03-21T06:09:17;98011.38;;;7.90;99.63
8894;BME280;4483;48.622;9.230;2023-03-21T06:11:47;98016.38;;;7.94;99.53
8894;BME280;4483;48.622;9.230;2023-03-21T06:14:14;98007.69;;;8.00;99.66
8894;BME280;4483;48.622;9.230;2023-03-21T06:16:41;98002.44;;;8.03;99.47
8894;BME280;4483;48.622;9.230;2023-03-21T06:19:08;98005.78;;;8.06;99.21
8894;BME280;4483;48.622;9.230;2023-03-21T06:21:35;98006.44;;;8.13;99.54
8894;BME280;4483;48.622;9.230;2023-03-21T06:24:02;98010.59;;;8.17;99.35
8894;BME280;4483;48.622;9.230;2023-03-21T06:26:30;98010.44;;;8.23;99.64
8894;BME280;4483;48.622;9.230;2023-03-21T06:28:57;98010.41;;;8.25;98.95
8894;BME280;4483;48.622;9.230;2023-03-21T06:31:23;98007.72;;;8.29;98.73
8894;BME280;4483;48.622;9.230;2023-03-21T06:33:51;98005.88;;;8.34;98.63
8894;BME280;4483;48.622;9.230;2023-03-21T06:36:18;97998.03;;;8.39;98.84
8894;BME280;4483;48.622;9.230;2023-03-21T06:38:45;98002.09;;;8.46;98.75
8894;BME280;4483;48.622;9.230;2023-03-21T06:41:13;98007.88;;;8.52;98.63
8894;BME280;4483;48.622;9.230;2023-03-21T06:43:41;98007.72;;;8.58;98.10
8894;BME280;4483;48.622;9.230;2023-03-21T06:46:08;98006.53;;;8.68;97.71
8894;BME280;4483;48.622;9.230;2023-03-21T06:48:35;98006.53;;;8.68;97.44
8894;BME280;4483;48.622;9.230;2023-03-21T06:51:09;98003.56;;;8.82;98.15
8894;BME280;4483;48.622;9.230;2023-03-21T06:53:35;98001.81;;;9.10;98.57
8894;BME280;4483;48.622;9.230;2023-03-21T06:56:02;97993.88;;;9.67;98.66
8894;BME280;4483;48.622;9.230;2023-03-21T06:58:29;97994.31;;;10.27;97.32
8894;BME280;4483;48.622;9.230;2023-03-21T07:00:58;97995.00;;;10.75;95.78
8894;BME280;4483;48.622;9.230;2023-03-21T07:03:26;97995.41;;;11.30;94.26
8894;BME280;4483;48.622;9.230;2023-03-21T07:05:53;97992.34;;;11.82;91.56
8894;BME280;4483;48.622;9.230;2023-03-21T07:08:20;97988.03;;;12.21;89.17
8894;BME280;4483;48.622;9.230;2023-03-21T07:10:47;97991.00;;;12.49;87.31
8894;BME280;4483;48.622;9.230;2023-03-21T07:13:14;97994.28;;;12.71;86.12
8894;BME280;4483;48.622;9.230;2023-03-21T07:15:41;97986.34;;;12.93;85.01
8894;BME280;4483;48.622;9.230;2023-03-21T07:18:09;97991.88;;;13.04;84.09
8894;BME280;4483;48.622;9.230;2023-03-21T07:20:36;97989.09;;;13.08;83.27
8894;BME280;4483;48.622;9.230;2023-03-21T07:23:03;97984.91;;;13.23;82.23
8894;BME280;4483;48.622;9.230;2023-03-21T07:25:30;97977.56;;;13.33;80.98
8894;BME280;4483;48.622;9.230;2023-03-21T07:27:56;97980.75;;;13.38;80.87
8894;BME280;4483;48.622;9.230;2023-03-21T07:30:23;97993.75;;;13.36;79.65
8894;BME280;4483;48.622;9.230;2023-03-21T07:32:50;97986.13;;;13.33;78.84
8894;BME280;4483;48.622;9.230;2023-03-21T07:35:19;97989.56;;;13.51;77.13
8894;BME280;4483;48.622;9.230;2023-03-21T07:37:45;97985.50;;;13.79;78.73
8894;BME280;4483;48.622;9.230;2023-03-21T07:40:12;97985.94;;;14.04;77.20
8894;BME280;4483;48.622;9.230;2023-03-21T07:42:40;97975.59;;;14.37;74.56
8894;BME280;4483;48.622;9.230;2023-03-21T07:45:08;97982.63;;;14.66;70.86
8894;BME280;4483;48.622;9.230;2023-03-21T07:47:35;97977.03;;;15.03;72.89
8894;BME280;4483;48.622;9.230;2023-03-21T07:50:02;97973.38;;;15.53;72.99
8894;BME280;4483;48.622;9.230;2023-03-21T07:52:30;97969.63;;;16.00;71.34
8894;BME280;4483;48.622;9.230;2023-03-21T07:54:57;97972.31;;;16.41;70.20
8894;BME280;4483;48.622;9.230;2023-03-21T07:57:24;97965.22;;;16.71;67.58
8894;BME280;4483;48.622;9.230;2023-03-21T07:59:50;97965.97;;;16.73;66.21
8894;BME280;4483;48.622;9.230;2023-03-21T08:02:17;97967.13;;;16.55;64.95
8894;BME280;4483;48.622;9.230;2023-03-21T08:04:44;97969.56;;;16.02;63.31
8894;BME280;4483;48.622;9.230;2023-03-21T08:07:11;97971.34;;;15.58;64.28
8894;BME280;4483;48.622;9.230;2023-03-21T08:09:39;97977.06;;;15.33;64.78
8894;BME280;4483;48.622;9.230;2023-03-21T08:12:06;97976.25;;;15.33;64.95
8894;BME280;4483;48.622;9.230;2023-03-21T08:14:34;97969.00;;;15.53;64.71
8894;BME280;4483;48.622;9.230;2023-03-21T08:17:01;97974.19;;;15.53;64.78
8894;BME280;4483;48.622;9.230;2023-03-21T08:19:28;97959.78;;;15.77;64.31
8894;BME280;4483;48.622;9.230;2023-03-21T08:21:55;97968.53;;;16.19;64.02
8894;BME280;4483;48.622;9.230;2023-03-21T08:24:24;97961.00;;;16.42;61.76
8894;BME280;4483;48.622;9.230;2023-03-21T08:26:52;97958.00;;;16.89;61.82
8894;BME280;4483;48.622;9.230;2023-03-21T08:29:18;97948.88;;;17.23;59.39
8894;BME280;4483;48.622;9.230;2023-03-21T08:31:45;97946.06;;;17.65;59.13
8894;BME280;4483;48.622;9.230;2023-03-21T08:34:12;97936.88;;;18.09;57.66
8894;BME280;4483;48.622;9.230;2023-03-21T08:36:39;97946.63;;;18.56;56.78
8894;BME280;4483;48.622;9.230;2023-03-21T08:39:06;97941.19;;;19.06;56.49
8894;BME280;4483;48.622;9.230;2023-03-21T08:41:34;97937.38;;;19.58;54.93
8894;BME280;4483;48.622;9.230;2023-03-21T08:44:04;97936.69;;;19.78;53.68
8894;BME280;4483;48.622;9.230;2023-03-21T08:46:31;97930.16;;;19.72;52.93
8894;BME280;4483;48.622;9.230;2023-03-21T08:48:58;97928.25;;;19.74;52.15
8894;BME280;4483;48.622;9.230;2023-03-21T08:51:25;97926.22;;;19.67;50.69
8894;BME280;4483;48.622;9.230;2023-03-21T08:53:51;97926.03;;;19.92;50.30
8894;BME280;4483;48.622;9.230;2023-03-21T08:56:18;97924.06;;;20.29;49.92
8894;BME280;4483;48.622;9.230;2023-03-21T08:58:45;97919.59;;;20.62;49.10
8894;BME280;4483;48.622;9.230;2023-03-21T09:01:15;97912.66;;;21.15;48.29
8894;BME280;4483;48.622;9.230;2023-03-21T09:03:42;97913.72;;;21.65;46.61
8894;BME280;4483;48.622;9.230;2023-03-21T09:06:09;97915.91;;;22.01;46.01
8894;BME280;4483;48.622;9.230;2023-03-21T09:08:38;97908.94;;;22.21;44.43
8894;BME280;4483;48.622;9.230;2023-03-21T09:11:06;97908.53;;;22.25;43.51
8894;BME280;4483;48.622;9.230;2023-03-21T09:13:33;97911.38;;;22.13;42.13
8894;BME280;4483;48.622;9.230;2023-03-21T09:16:00;97912.81;;;21.96;42.16
8894;BME280;4483;48.622;9.230;2023-03-21T09:18:28;97912.66;;;21.67;42.14
8894;BME280;4483;48.622;9.230;2023-03-21T09:21:09;97915.41;;;21.14;42.28
8894;BME280;4483;48.622;9.230;2023-03-21T09:23:37;97917.91;;;20.72;42.81
8894;BME280;4483;48.622;9.230;2023-03-21T09:26:06;97919.63;;;20.40;42.66
8894;BME280;4483;48.622;9.230;2023-03-21T09:28:33;97921.44;;;20.29;42.99
8894;BME280;4483;48.622;9.230;2023-03-21T09:31:00;97910.38;;;20.47;42.85
8894;BME280;4483;48.622;9.230;2023-03-21T09:33:28;97910.31;;;21.12;42.58
8894;BME280;4483;48.622;9.230;2023-03-21T09:35:55;97912.00;;;21.54;41.20
8894;BME280;4483;48.622;9.230;2023-03-21T09:38:24;97915.00;;;21.91;40.84
8894;BME280;4483;48.622;9.230;2023-03-21T09:41:02;97907.22;;;21.80;39.87
8894;BME280;4483;48.622;9.230;2023-03-21T09:43:39;97915.84;;;21.71;39.77
8894;BME280;4483;48.622;9.230;2023-03-21T09:46:18;97908.28;;;21.77;39.43
8894;BME280;4483;48.622;9.230;2023-03-21T09:48:55;97914.31;;;21.89;39.23
8894;BME280;4483;48.622;9.230;2023-03-21T09:51:27;97902.44;;;22.15;39.03
8894;BME280;4483;48.622;9.230;2023-03-21T09:53:59;97899.44;;;22.29;38.90
8894;BME280;4483;48.622;9.230;2023-03-21T09:56:28;97901.44;;;22.46;38.37
8894;BME280;4483;48.622;9.230;2023-03-21T09:58:56;97891.91;;;22.55;38.49
8894;BME280;4483;48.622;9.230;2023-03-21T10:01:27;97889.50;;;22.72;37.74
8894;BME280;4483;48.622;9.230;2023-03-21T10:04:01;97894.63;;;22.83;37.36
8894;BME280;4483;48.622;9.230;2023-03-21T10:06:31;97891.03;;;22.94;36.82
8894;BME280;4483;48.622;9.230;2023-03-21T10:09:02;97887.03;;;23.00;35.70
8894;BME280;4483;48.622;9.230;2023-03-21T10:11:39;97887.97;;;22.98;34.74
8894;BME280;4483;48.622;9.230;2023-03-21T10:14:15;97870.00;;;22.84;33.87
8894;BME280;4483;48.622;9.230;2023-03-21T10:16:57;97873.88;;;22.90;34.17
8894;BME280;4483;48.622;9.230;2023-03-21T10:19:27;97874.97;;;22.68;33.74
8894;BME280;4483;48.622;9.230;2023-03-21T10:21:54;97873.22;;;22.39;33.88
8894;BME280;4483;48.622;9.230;2023-03-21T10:24:23;97870.75;;;22.07;34.43
8894;BME280;4483;48.622;9.230;2023-03-21T10:26:52;97866.50;;;22.06;35.07
8894;BME280;4483;48.622;9.230;2023-03-21T10:29:21;97861.50;;;22.43;35.17
8894;BME280;4483;48.622;9.230;2023-03-21T10:31:50;97859.75;;;22.72;34.77
8894;BME280;4483;48.622;9.230;2023-03-21T10:34:21;97855.19;;;22.64;34.48
8894;BME280;4483;48.622;9.230;2023-03-21T10:36:52;97855.78;;;22.28;34.74
8894;BME280;4483;48.622;9.230;2023-03-21T10:39:25;97850.66;;;21.87;35.34
8894;BME280;4483;48.622;9.230;2023-03-21T10:41:52;97855.47;;;21.61;36.17
8894;BME280;4483;48.622;9.230;2023-03-21T10:44:19;97855.34;;;21.63;36.21
8894;BME280;4483;48.622;9.230;2023-03-21T10:46:51;97855.31;;;21.53;36.54
8894;BME280;4483;48.622;9.230;2023-03-21T10:49:18;97849.28;;;21.21;36.85
8894;BME280;4483;48.622;9.230;2023-03-21T10:51:47;97855.22;;;20.91;37.43
8894;BME280;4483;48.622;9.230;2023-03-21T10:54:18;97850.34;;;20.66;37.50
8894;BME280;4483;48.622;9.230;2023-03-21T10:56:54;97853.94;;;20.54;38.14
8894;BME280;4483;48.622;9.230;2023-03-21T10:59:23;97848.09;;;20.62;38.08
8894;BME280;4483;48.622;9.230;2023-03-21T11:01:54;97846.56;;;20.59;38.02
8894;BME280;4483;48.622;9.230;2023-03-21T11:04:24;97848.16;;;20.71;38.53
8894;BME280;4483;48.622;9.230;2023-03-21T11:06:53;97853.00;;;20.87;38.61
8894;BME280;4483;48.622;9.230;2023-03-21T11:09:23;97852.16;;;20.86;38.40
8894;BME280;4483;48.622;9.230;2023-03-21T11:11:52;97848.69;;;20.65;38.73
8894;BME280;4483;48.622;9.230;2023-03-21T11:14:38;97850.81;;;20.60;38.56
8894;BME280;4483;48.622;9.230;2023-03-21T11:17:19;97839.78;;;20.57;38.62
8894;BME280;4483;48.622;9.230;2023-03-21T11:19:47;97850.16;;;20.47;39.04
8894;BME280;4483;48.622;9.230;2023-03-21T11:22:16;97839.50;;;20.28;39.04
8894;BME280;4483;48.622;9.230;2023-03-21T11:24:49;97836.53;;;20.11;38.55
8894;BME280;4483;48.622;9.230;2023-03-21T11:27:16;97832.72;;;19.92;39.31
8894;BME280;4483;48.622;9.230;2023-03-21T11:29:45;97832.84;;;19.80;39.46
8894;BME280;4483;48.622;9.230;2023-03-21T11:32:20;97830.94;;;19.71;39.53
8894;BME280;4483;48.622;9.230;2023-03-21T11:34:48;97832.50;;;19.62;39.72
8894;BME280;4483;48.622;9.230;2023-03-21T11:37:21;97827.75;;;19.67;40.10
8894;BME280;4483;48.622;9.230;2023-03-21T11:39:55;97832.03;;;19.57;41.02
8894;BME280;4483;48.622;9.230;2023-03-21T11:42:30;97824.19;;;19.46;41.04
8894;BME280;4483;48.622;9.230;2023-03-21T11:45:01;97826.91;;;19.34;41.70
8894;BME280;4483;48.622;9.230;2023-03-21T11:47:28;97818.03;;;19.24;41.64
8894;BME280;4483;48.622;9.230;2023-03-21T11:49:55;97819.06;;;19.10;41.88
8894;BME280;4483;48.622;9.230;2023-03-21T11:52:30;97814.31;;;19.04;43.05
8894;BME280;4483;48.622;9.230;2023-03-21T11:55:25;97805.38;;;18.95;43.49
8894;BME280;4483;48.622;9.230;2023-03-21T11:58:04;97795.41;;;18.89;43.61
8894;BME280;4483;48.622;9.230;2023-03-21T12:00:38;97798.03;;;18.89;43.89
8894;BME280;4483;48.622;9.230;2023-03-21T12:03:36;97790.91;;;18.91;44.34
8894;BME280;4483;48.622;9.230;2023-03-21T12:06:12;97790.78;;;18.93;44.23
8894;BME280;4483;48.622;9.230;2023-03-21T12:08:48;97786.75;;;18.89;44.87
8894;BME280;4483;48.622;9.230;2023-03-21T12:11:23;97787.59;;;18.89;44.57
8894;BME280;4483;48.622;9.230;2023-03-21T12:13:58;97781.25;;;18.81;45.11
8894;BME280;4483;48.622;9.230;2023-03-21T12:16:35;97779.25;;;18.84;45.46
8894;BME280;4483;48.622;9.230;2023-03-21T12:19:14;97766.31;;;18.83;45.06
8894;BME280;4483;48.622;9.230;2023-03-21T12:21:53;97769.75;;;18.83;45.46
8894;BME280;4483;48.622;9.230;2023-03-21T12:24:26;97764.09;;;18.89;45.51
8894;BME280;4483;48.622;9.230;2023-03-21T12:27:05;97766.44;;;18.81;45.32
8894;BME280;4483;48.622;9.230;2023-03-21T12:29:49;97758.44;;;18.72;45.52
8894;BME280;4483;48.622;9.230;2023-03-21T12:32:26;97760.44;;;18.68;45.80
8894;BME280;4483;48.622;9.230;2023-03-21T12:35:18;97756.06;;;18.69;45.27
8894;BME280;4483;48.622;9.230;2023-03-21T12:37:52;97756.63;;;18.61;46.00
8894;BME280;4483;48.622;9.230;2023-03-21T12:40:33;97754.50;;;18.66;46.11
8894;BME280;4483;48.622;9.230;2023-03-21T12:43:28;97750.38;;;18.64;46.14
8894;BME280;4483;48.622;9.230;2023-03-21T12:45:59;97745.38;;;18.61;46.10
8894;BME280;4483;48.622;9.230;2023-03-21T12:48:38;97747.25;;;18.59;45.99
8894;BME280;4483;48.622;9.230;2023-03-21T12:51:11;97748.34;;;18.56;46.73
8894;BME280;4483;48.622;9.230;2023-03-21T12:53:56;97744.75;;;18.57;46.83
8894;BME280;4483;48.622;9.230;2023-03-21T12:56:29;97739.09;;;18.63;46.59
8894;BME280;4483;48.622;9.230;2023-03-21T12:59:02;97738.66;;;18.69;46.33
8894;BME280;4483;48.622;9.230;2023-03-21T13:01:33;97742.22;;;18.79;46.29
8894;BME280;4483;48.622;9.230;2023-03-21T13:04:13;97739.75;;;18.89;46.56
8894;BME280;4483;48.622;9.230;2023-03-21T13:06:47;97740.38;;;19.03;46.16
8894;BME280;4483;48.622;9.230;2023-03-21T13:09:20;97728.50;;;18.99;45.79
8894;BME280;4483;48.622;9.230;2023-03-21T13:11:55;97729.34;;;19.11;45.67
8894;BME280;4483;48.622;9.230;2023-03-21T13:14:29;97732.22;;;19.19;45.24
8894;BME280;4483;48.622;9.230;2023-03-21T13:17:03;97723.28;;;19.22;45.60
8894;BME280;4483;48.622;9.230;2023-03-21T13:19:35;97727.09;;;19.29;45.52
8894;BME280;4483;48.622;9.230;2023-03-21T13:22:09;97722.41;;;19.45;45.10
8894;BME280;4483;48.622;9.230;2023-03-21T13:24:39;97722.84;;;19.61;45.29
8894;BME280;4483;48.622;9.230;2023-03-21T13:27:17;97719.28;;;19.62;44.90
8894;BME280;4483;48.622;9.230;2023-03-21T13:29:52;97709.28;;;19.67;44.95
8894;BME280;4483;48.622;9.230;2023-03-21T13:32:26;97700.09;;;19.83;44.82
8894;BME280;4483;48.622;9.230;2023-03-21T13:34:54;97708.63;;;19.96;43.77
8894;BME280;4483;48.622;9.230;2023-03-21T13:37:24;97704.56;;;20.03;43.03
8894;BME280;4483;48.622;9.230;2023-03-21T13:39:52;97695.38;;;20.09;43.10
8894;BME280;4483;48.622;9.230;2023-03-21T13:42:32;97694.66;;;20.18;41.98
8894;BME280;4483;48.622;9.230;2023-03-21T13:45:01;97698.97;;;20.08;42.27
8894;BME280;4483;48.622;9.230;2023-03-21T13:47:38;97693.53;;;20.00;41.96